Modern Express — H9DG — position and weather

sailwx.info

Track history (hours):
 
Tides and Currents Weather Stations Pressure Air Temp Water Temp Dewpoint Dewpoint Depression Visibility Wind Speed Wind Dir Waves Ship Positions

Modern Express

Last reported at 2015-Mar-31 06:26 UTC. Time now 2015-Mar-31 06:44 UTC.
Position N 51°16' E 004°13'.

Length 164 m; beam 28 m.

Type: Cargo ship. MMSI: 356187000.

Date/timePositionNaut miles runAvg speedWind from/ knotsBaromVisibWave heightAir tempDewpointWater temp
2015-Mar-31 06:26N 51°16' E 004°13'0 0.0
2015-Mar-31 05:32N 51°16' E 004°13'0 0.0
2015-Mar-31 04:32N 51°16' E 004°13'0 0.0
2015-Mar-31 03:32N 51°16' E 004°13'0 0.0
2015-Mar-31 02:32N 51°16' E 004°13'0 0.0
2015-Mar-31 01:32N 51°16' E 004°13'0 0.0
2015-Mar-31 00:29N 51°16' E 004°13'0 0.0
2015-Mar-30 23:32N 51°16' E 004°13'0 0.0
2015-Mar-30 22:32N 51°16' E 004°13'0 0.0
2015-Mar-30 21:32N 51°16' E 004°13'0 0.0
2015-Mar-30 20:32N 51°16' E 004°13'0 0.0
2015-Mar-30 19:32N 51°16' E 004°13'0 0.0
2015-Mar-30 18:32N 51°16' E 004°13'0 0.0
2015-Mar-30 17:32N 51°16' E 004°13'0 0.0
2015-Mar-30 16:32N 51°16' E 004°13'0 0.0
2015-Mar-30 15:29N 51°16' E 004°13'0 0.0
2015-Mar-30 14:32N 51°16' E 004°13'0 0.0
2015-Mar-30 13:29N 51°16' E 004°13'0 0.0
2015-Mar-30 12:29N 51°16' E 004°13'0 0.0
2015-Mar-30 11:32N 51°16' E 004°13'0 0.0
2015-Mar-30 10:29N 51°16' E 004°13'0 0.0
2015-Mar-30 09:32N 51°16' E 004°13'0 0.0
2015-Mar-30 08:29N 51°16' E 004°13'0 0.0
2015-Mar-30 07:26N 51°16' E 004°13'0 0.0
2015-Mar-30 06:29N 51°16' E 004°13'0 0.0
2015-Mar-30 05:32N 51°16' E 004°13'0 0.0
2015-Mar-30 04:32N 51°16' E 004°13'0 0.0
2015-Mar-30 03:32N 51°16' E 004°13'0 0.0
2015-Mar-30 02:32N 51°16' E 004°13'0 0.0
2015-Mar-30 01:32N 51°16' E 004°13'0 0.0
2015-Mar-30 00:32N 51°16' E 004°13'0 0.0
2015-Mar-29 23:32N 51°16' E 004°13'0 0.0
2015-Mar-29 22:32N 51°16' E 004°13'0 0.0
2015-Mar-29 21:29N 51°16' E 004°13'0 0.0
2015-Mar-29 20:32N 51°16' E 004°13'0 0.0
2015-Mar-29 19:32N 51°16' E 004°13'0 0.0
2015-Mar-29 18:32N 51°16' E 004°13'0 0.0
2015-Mar-29 17:32N 51°16' E 004°13'0 0.0
2015-Mar-29 16:32N 51°16' E 004°13'0 0.0
2015-Mar-29 15:32N 51°16' E 004°13'0 0.0
2015-Mar-29 14:32N 51°16' E 004°13'0 0.0
2015-Mar-29 13:32N 51°16' E 004°13'0 0.0
2015-Mar-29 12:32N 51°16' E 004°13'0 0.2
2015-Mar-29 11:33N 51°17' E 004°13'2 2.2
2015-Mar-29 10:34N 51°16' E 004°17'2 2.2
2015-Mar-29 09:34N 51°18' E 004°17'7 7.0
2015-Mar-29 08:33N 51°22' E 004°08'7 6.8
2015-Mar-29 07:33N 51°23' E 003°57'9 9.2
2015-Mar-29 06:33N 51°24' E 003°42'9 9.2
2015-Mar-29 05:33N 51°25' E 003°28'1211.7
2015-Mar-29 04:33N 51°24' E 003°09'1111.4
2015-Mar-29 03:33N 51°22' E 002°51'7 6.9
2015-Mar-29 02:33N 51°25' E 002°41'2 1.7
2015-Mar-29 01:33N 51°26' E 002°40'5 4.9
2015-Mar-29 00:33N 51°22' E 002°37'1312.9
2015-Mar-28 23:33N 51°18' E 002°17'1818.2
2015-Mar-28 22:34N 51°09' E 001°52'1918.7
2015-Mar-28 21:33N 50°56' E 001°30'3816.8
2015-Mar-28 19:17N 50°29' E 000°48'1417.6
2015-Mar-28 18:28N 50°23' E 000°27'4415.1
2015-Mar-28 15:33N 49°46' W 000°08'1615.6
2015-Mar-28 14:33N 49°32' E 000°01'7 6.8
2015-Mar-28 13:33N 49°29' E 000°10'1 1.2
2015-Mar-28 12:33N 49°28' E 000°12'0 0.0
2015-Mar-28 11:33N 49°28' E 000°12'0 0.0
2015-Mar-28 10:33N 49°28' E 000°12'0 0.0
2015-Mar-28 09:33N 49°28' E 000°12'0 0.0
2015-Mar-28 08:33N 49°28' E 000°12'0 0.0
2015-Mar-28 07:33N 49°28' E 000°12'0 0.0
2015-Mar-28 06:33N 49°28' E 000°12'0 0.0
2015-Mar-28 05:33N 49°28' E 000°12'0 0.0
2015-Mar-28 04:33N 49°28' E 000°12'0 0.2
2015-Mar-28 03:33N 49°28' E 000°12'2 1.7
2015-Mar-28 02:33N 49°28' E 000°09'9 9.4
2015-Mar-28 01:33N 49°31' W 000°05'8 7.7
2015-Mar-28 00:33N 49°34' W 000°16'1211.5
2015-Mar-27 23:33N 49°40' W 000°31'1313.5
2015-Mar-27 22:34N 49°47' W 000°49'  
2015-Mar-25 15:15N 39°06' W 009°55'1311.4
2015-Mar-25 14:09N 38°53' W 009°53'711.5
2015-Mar-25 13:31N 38°46' W 009°52'1211.2
2015-Mar-25 12:28N 38°35' W 009°49'1110.7
2015-Mar-25 11:27N 38°25' W 009°41'1010.3
2015-Mar-25 10:31N 38°17' W 009°36'7 7.1
2015-Mar-25 09:33N 38°11' W 009°32'5 5.5
2015-Mar-25 08:33N 38°06' W 009°29'5 5.5
2015-Mar-25 07:33N 38°01' W 009°26'5 5.3
2015-Mar-25 06:33N 37°56' W 009°23'5 5.1
2015-Mar-25 05:33N 37°51' W 009°20'4 4.2
2015-Mar-25 04:33N 37°48' W 009°18'4 4.1
2015-Mar-25 03:33N 37°44' W 009°16'5 4.5
2015-Mar-25 02:33N 37°40' W 009°13'5 4.7
2015-Mar-25 01:33N 37°35' W 009°12'1110.6
2015-Mar-25 00:33N 37°46' W 009°11'1212.2
2015-Mar-24 23:33N 37°58' W 009°12'1212.0
2015-Mar-24 22:33N 38°08' W 009°21'1111.5
2015-Mar-24 21:34N 38°18' W 009°29'1111.1
2015-Mar-24 20:33N 38°27' W 009°37'10 8.9
2015-Mar-24 19:28N 38°33' W 009°46'4 4.3
2015-Mar-24 18:29N 38°30' W 009°43'6 5.9
2015-Mar-24 17:32N 38°26' W 009°38'7 6.7
2015-Mar-24 16:33N 38°21' W 009°32'8 7.9
2015-Mar-24 15:34N 38°15' W 009°25'1010.4
2015-Mar-24 14:33N 38°07' W 009°17'1110.5
2015-Mar-24 13:33N 37°57' W 009°12'1110.5
2015-Mar-24 12:33N 37°48' W 009°19'9 8.9
2015-Mar-24 11:33N 37°41' W 009°25'7 6.9
2015-Mar-24 10:33N 37°36' W 009°31'7 6.5
2015-Mar-24 09:32N 37°31' W 009°37'56913.2
2015-Mar-22 14:21N 28°35' W 013°26'1615.8
2015-Mar-22 13:21N 28°21' W 013°33'1316.3
2015-Mar-22 12:32N 28°09' W 013°39'  
Track history (hours):
 
Tides and Currents Weather Stations Pressure Air Temp Water Temp Dewpoint Dewpoint Depression Visibility Wind Speed Wind Dir Waves Ship Positions

Modern Express

Last reported at 2015-Mar-31 06:26 UTC. Time now 2015-Mar-31 06:44 UTC.
Position N 51°16' E 004°13'.

Length 164 m; beam 28 m.

Type: Cargo ship. MMSI: 356187000.

Date/timePositionNaut miles runAvg speedWind from/ knotsBaromVisibWave heightAir tempDewpointWater temp
2015-Mar-31 06:26N 51°16' E 004°13'0 0.0
2015-Mar-31 05:32N 51°16' E 004°13'0 0.0
2015-Mar-31 04:32N 51°16' E 004°13'0 0.0
2015-Mar-31 03:32N 51°16' E 004°13'0 0.0
2015-Mar-31 02:32N 51°16' E 004°13'0 0.0
2015-Mar-31 01:32N 51°16' E 004°13'0 0.0
2015-Mar-31 00:29N 51°16' E 004°13'0 0.0
2015-Mar-30 23:32N 51°16' E 004°13'0 0.0
2015-Mar-30 22:32N 51°16' E 004°13'0 0.0
2015-Mar-30 21:32N 51°16' E 004°13'0 0.0
2015-Mar-30 20:32N 51°16' E 004°13'0 0.0
2015-Mar-30 19:32N 51°16' E 004°13'0 0.0
2015-Mar-30 18:32N 51°16' E 004°13'0 0.0
2015-Mar-30 17:32N 51°16' E 004°13'0 0.0
2015-Mar-30 16:32N 51°16' E 004°13'0 0.0
2015-Mar-30 15:29N 51°16' E 004°13'0 0.0
2015-Mar-30 14:32N 51°16' E 004°13'0 0.0
2015-Mar-30 13:29N 51°16' E 004°13'0 0.0
2015-Mar-30 12:29N 51°16' E 004°13'0 0.0
2015-Mar-30 11:32N 51°16' E 004°13'0 0.0
2015-Mar-30 10:29N 51°16' E 004°13'0 0.0
2015-Mar-30 09:32N 51°16' E 004°13'0 0.0
2015-Mar-30 08:29N 51°16' E 004°13'0 0.0
2015-Mar-30 07:26N 51°16' E 004°13'0 0.0
2015-Mar-30 06:29N 51°16' E 004°13'0 0.0
2015-Mar-30 05:32N 51°16' E 004°13'0 0.0
2015-Mar-30 04:32N 51°16' E 004°13'0 0.0
2015-Mar-30 03:32N 51°16' E 004°13'0 0.0
2015-Mar-30 02:32N 51°16' E 004°13'0 0.0
2015-Mar-30 01:32N 51°16' E 004°13'0 0.0
2015-Mar-30 00:32N 51°16' E 004°13'0 0.0
2015-Mar-29 23:32N 51°16' E 004°13'0 0.0
2015-Mar-29 22:32N 51°16' E 004°13'0 0.0
2015-Mar-29 21:29N 51°16' E 004°13'0 0.0
2015-Mar-29 20:32N 51°16' E 004°13'0 0.0
2015-Mar-29 19:32N 51°16' E 004°13'0 0.0
2015-Mar-29 18:32N 51°16' E 004°13'0 0.0
2015-Mar-29 17:32N 51°16' E 004°13'0 0.0
2015-Mar-29 16:32N 51°16' E 004°13'0 0.0
2015-Mar-29 15:32N 51°16' E 004°13'0 0.0
2015-Mar-29 14:32N 51°16' E 004°13'0 0.0
2015-Mar-29 13:32N 51°16' E 004°13'0 0.0
2015-Mar-29 12:32N 51°16' E 004°13'0 0.2
2015-Mar-29 11:33N 51°17' E 004°13'2 2.2
2015-Mar-29 10:34N 51°16' E 004°17'2 2.2
2015-Mar-29 09:34N 51°18' E 004°17'7 7.0
2015-Mar-29 08:33N 51°22' E 004°08'7 6.8
2015-Mar-29 07:33N 51°23' E 003°57'9 9.2
2015-Mar-29 06:33N 51°24' E 003°42'9 9.2
2015-Mar-29 05:33N 51°25' E 003°28'1211.7
2015-Mar-29 04:33N 51°24' E 003°09'1111.4
2015-Mar-29 03:33N 51°22' E 002°51'7 6.9
2015-Mar-29 02:33N 51°25' E 002°41'2 1.7
2015-Mar-29 01:33N 51°26' E 002°40'5 4.9
2015-Mar-29 00:33N 51°22' E 002°37'1312.9
2015-Mar-28 23:33N 51°18' E 002°17'1818.2
2015-Mar-28 22:34N 51°09' E 001°52'1918.7
2015-Mar-28 21:33N 50°56' E 001°30'3816.8
2015-Mar-28 19:17N 50°29' E 000°48'1417.6
2015-Mar-28 18:28N 50°23' E 000°27'4415.1
2015-Mar-28 15:33N 49°46' W 000°08'1615.6
2015-Mar-28 14:33N 49°32' E 000°01'7 6.8
2015-Mar-28 13:33N 49°29' E 000°10'1 1.2
2015-Mar-28 12:33N 49°28' E 000°12'0 0.0
2015-Mar-28 11:33N 49°28' E 000°12'0 0.0
2015-Mar-28 10:33N 49°28' E 000°12'0 0.0
2015-Mar-28 09:33N 49°28' E 000°12'0 0.0
2015-Mar-28 08:33N 49°28' E 000°12'0 0.0
2015-Mar-28 07:33N 49°28' E 000°12'0 0.0
2015-Mar-28 06:33N 49°28' E 000°12'0 0.0
2015-Mar-28 05:33N 49°28' E 000°12'0 0.0
2015-Mar-28 04:33N 49°28' E 000°12'0 0.2
2015-Mar-28 03:33N 49°28' E 000°12'2 1.7
2015-Mar-28 02:33N 49°28' E 000°09'9 9.4
2015-Mar-28 01:33N 49°31' W 000°05'8 7.7
2015-Mar-28 00:33N 49°34' W 000°16'1211.5
2015-Mar-27 23:33N 49°40' W 000°31'1313.5
2015-Mar-27 22:34N 49°47' W 000°49'  
2015-Mar-25 15:15N 39°06' W 009°55'1311.4
2015-Mar-25 14:09N 38°53' W 009°53'711.5
2015-Mar-25 13:31N 38°46' W 009°52'1211.2
2015-Mar-25 12:28N 38°35' W 009°49'1110.7
2015-Mar-25 11:27N 38°25' W 009°41'1010.3
2015-Mar-25 10:31N 38°17' W 009°36'7 7.1
2015-Mar-25 09:33N 38°11' W 009°32'5 5.5
2015-Mar-25 08:33N 38°06' W 009°29'5 5.5
2015-Mar-25 07:33N 38°01' W 009°26'5 5.3
2015-Mar-25 06:33N 37°56' W 009°23'5 5.1
2015-Mar-25 05:33N 37°51' W 009°20'4 4.2
2015-Mar-25 04:33N 37°48' W 009°18'4 4.1
2015-Mar-25 03:33N 37°44' W 009°16'5 4.5
2015-Mar-25 02:33N 37°40' W 009°13'5 4.7
2015-Mar-25 01:33N 37°35' W 009°12'1110.6
2015-Mar-25 00:33N 37°46' W 009°11'1212.2
2015-Mar-24 23:33N 37°58' W 009°12'1212.0
2015-Mar-24 22:33N 38°08' W 009°21'1111.5
2015-Mar-24 21:34N 38°18' W 009°29'1111.1
2015-Mar-24 20:33N 38°27' W 009°37'10 8.9
2015-Mar-24 19:28N 38°33' W 009°46'4 4.3
2015-Mar-24 18:29N 38°30' W 009°43'6 5.9
2015-Mar-24 17:32N 38°26' W 009°38'7 6.7
2015-Mar-24 16:33N 38°21' W 009°32'8 7.9
2015-Mar-24 15:34N 38°15' W 009°25'1010.4
2015-Mar-24 14:33N 38°07' W 009°17'1110.5
2015-Mar-24 13:33N 37°57' W 009°12'1110.5
2015-Mar-24 12:33N 37°48' W 009°19'9 8.9
2015-Mar-24 11:33N 37°41' W 009°25'7 6.9
2015-Mar-24 10:33N 37°36' W 009°31'7 6.5
2015-Mar-24 09:32N 37°31' W 009°37'56913.2
2015-Mar-22 14:21N 28°35' W 013°26'1615.8
2015-Mar-22 13:21N 28°21' W 013°33'1316.3
2015-Mar-22 12:32N 28°09' W 013°39'  

Dump ship's entire track history